Time;durP1;ratioP1;P1;durP2;ratioP2;P2;SDS_P1;SDS_P2;PMS_P1;PMS_P2;Temp;Humidity;BMP_temperature;BMP_pressure;BME280_temperature;BME280_humidity;BME280_pressure;Samples;Min_cycle;Max_cycle;Signal;HPM_P1;HPM_P2
2022/01/28 00:00:49;;;;;;;;;;;;;;;18.75;42.67;101416.03;2068952;28;20363;-66
2022/01/28 00:02:04;;;;;;;;;;;;;;;18.76;42.65;101419.66;2066877;28;20311;-66
2022/01/28 00:04:13;;;;;;;;;;;;;;;18.75;42.64;101417.88;2069174;28;19917;-66
2022/01/28 00:05:20;;;;;;;;;;;;;;;18.73;42.75;101417.97;2066219;28;19921;-65
2022/01/28 00:06:20;;;;;;;;;;;;;;;18.74;42.64;101414.28;2066034;28;19960;-65
2022/01/28 00:07:20;;;;;;;;;;;;;;;18.74;42.71;101424.31;2066874;28;19921;-65
2022/01/28 00:08:21;;;;;;;;;;;;;;;18.74;42.82;101422.47;2066462;28;20452;-66
2022/01/28 00:09:21;;;;;;;;;;;;;;;18.74;42.83;101414.28;2067232;28;20309;-66
2022/01/28 00:10:22;;;;;;;;;;;;;;;18.75;42.88;101409.69;2064082;28;20439;-66
2022/01/28 00:11:23;;;;;;;;;;;;;;;18.74;42.88;101408.81;2066853;28;19928;-65
2022/01/28 00:12:24;;;;;;;;;;;;;;;18.74;42.80;101397.91;2066128;28;19921;-66
2022/01/28 00:15:47;;;;;;;;;;;;;;;18.75;42.78;101406.97;2063250;28;19921;-66
2022/01/28 00:21:00;;;;;;;;;;;;;;;18.77;42.86;101407.75;2065521;28;20010;-65
2022/01/28 00:38:51;;;;;;;;;;;;;;;18.73;42.81;101411.66;2061039;28;19921;-64
2022/01/28 00:39:51;;;;;;;;;;;;;;;18.71;42.91;101414.50;2072578;28;19909;-63
2022/01/28 00:40:52;;;;;;;;;;;;;;;18.71;42.94;101419.09;2066952;28;19924;-63
2022/01/28 00:41:52;;;;;;;;;;;;;;;18.70;42.85;101423.69;2066154;28;19917;-64
2022/01/28 00:42:52;;;;;;;;;;;;;;;18.71;42.81;101428.16;2066215;28;19948;-63
2022/01/28 00:43:53;;;;;;;;;;;;;;;18.70;42.95;101434.63;2066505;28;20365;-63
2022/01/28 00:44:53;;;;;;;;;;;;;;;18.71;42.86;101436.34;2062303;28;19910;-63
2022/01/28 00:45:53;;;;;;;;;;;;;;;18.71;42.91;101435.47;2063726;28;20007;-64
2022/01/28 00:46:54;;;;;;;;;;;;;;;18.72;42.75;101435.38;2066931;28;19958;-64
2022/01/28 00:47:54;;;;;;;;;;;;;;;18.73;43.10;101430.78;2066846;28;19917;-64
2022/01/28 00:48:56;;;;;;;;;;;;;;;18.72;42.88;101424.44;2065548;28;19916;-64
2022/01/28 00:49:56;;;;;;;;;;;;;;;18.72;42.77;101427.19;2068251;28;19957;-64
2022/01/28 00:50:57;;;;;;;;;;;;;;;18.72;42.74;101427.19;2064157;28;19993;-64
2022/01/28 00:51:57;;;;;;;;;;;;;;;18.72;42.73;101429.91;2066668;28;19917;-64
2022/01/28 00:52:57;;;;;;;;;;;;;;;18.74;42.74;101438.88;2067382;28;19952;-64
2022/01/28 00:53:58;;;;;;;;;;;;;;;18.72;42.76;101432.66;2070009;28;20328;-64
2022/01/28 00:54:58;;;;;;;;;;;;;;;18.73;42.83;101426.19;2062818;28;20550;-64
2022/01/28 00:55:58;;;;;;;;;;;;;;;18.73;42.84;101428.03;2065531;28;20273;-64
2022/01/28 00:56:59;;;;;;;;;;;;;;;18.73;42.71;101422.59;2065956;28;20609;-64
2022/01/28 00:57:59;;;;;;;;;;;;;;;18.73;42.74;101422.59;2066771;28;21011;-64
2022/01/28 00:58:59;;;;;;;;;;;;;;;18.72;42.69;101424.44;2066066;28;20310;-64
2022/01/28 01:00:00;;;;;;;;;;;;;;;18.72;42.75;101426.31;2065975;28;21050;-64
2022/01/28 01:01:00;;;;;;;;;;;;;;;18.70;42.74;101431.88;2062719;28;19921;-64
2022/01/28 01:02:00;;;;;;;;;;;;;;;18.70;42.77;101423.69;2066252;28;19924;-64
2022/01/28 01:03:00;;;;;;;;;;;;;;;18.68;42.99;101420.19;2063943;28;19917;-64
2022/01/28 01:04:01;;;;;;;;;;;;;;;18.68;42.91;101422.94;2066123;28;19928;-64
2022/01/28 01:05:01;;;;;;;;;;;;;;;18.67;42.89;101431.22;2066125;28;19928;-64
2022/01/28 01:06:01;;;;;;;;;;;;;;;18.67;42.81;101423.03;2064112;28;19925;-65
2022/01/28 01:07:02;;;;;;;;;;;;;;;18.66;42.86;101422.16;2067216;28;19956;-65
2022/01/28 01:08:03;;;;;;;;;;;;;;;18.64;43.07;101421.41;2068439;28;20154;-64
2022/01/28 01:09:04;;;;;;;;;;;;;;;18.64;43.04;101418.66;2066659;28;19983;-65
2022/01/28 01:10:05;;;;;;;;;;;;;;;18.64;42.94;101424.13;2066254;28;19912;-64
2022/01/28 01:11:06;;;;;;;;;;;;;;;18.62;42.93;101418.81;2066856;28;19909;-65
2022/01/28 01:12:07;;;;;;;;;;;;;;;18.62;42.99;101415.22;2067169;28;19928;-64
2022/01/28 01:13:07;;;;;;;;;;;;;;;18.62;43.08;101417.94;2063997;28;19933;-65
2022/01/28 01:14:08;;;;;;;;;;;;;;;18.61;43.06;101407.97;2065900;28;19936;-64
2022/01/28 01:15:09;;;;;;;;;;;;;;;18.62;42.97;101415.22;2067000;28;20493;-65
2022/01/28 01:16:12;;;;;;;;;;;;;;;18.61;43.16;101413.44;2067736;28;20625;-65
2022/01/28 01:18:44;;;;;;;;;;;;;;;18.60;43.02;101409.84;2067858;28;19920;-65
2022/01/28 01:19:39;;;;;;;;;;;;;;;18.60;43.10;101418.03;2066552;28;19956;-64
2022/01/28 01:21:43;;;;;;;;;;;;;;;18.60;43.06;101411.72;2068058;28;19940;-65
2022/01/28 01:22:51;;;;;;;;;;;;;;;18.61;43.07;101413.44;2066027;28;19995;-64
2022/01/28 01:23:53;;;;;;;;;;;;;;;18.61;43.16;101407.97;2066945;28;20407;-64
2022/01/28 01:25:03;;;;;;;;;;;;;;;18.62;43.01;101404.28;2065346;28;20375;-64
2022/01/28 01:27:04;;;;;;;;;;;;;;;18.61;43.09;101402.53;2061001;28;20477;-64
2022/01/28 01:28:05;;;;;;;;;;;;;;;18.60;42.96;101404.38;2065674;28;19939;-64
2022/01/28 01:29:08;;;;;;;;;;;;;;;18.59;43.05;101410.84;2060819;28;19971;-64
2022/01/28 01:30:09;;;;;;;;;;;;;;;18.58;43.09;101402.75;2066841;28;19921;-65
2022/01/28 01:31:13;;;;;;;;;;;;;;;18.57;43.23;101406.47;2064909;28;19917;-64
2022/01/28 01:32:16;;;;;;;;;;;;;;;18.56;43.25;101402.88;2065553;28;19917;-65
2022/01/28 01:33:18;;;;;;;;;;;;;;;18.56;43.24;101404.72;2065537;28;19918;-64
2022/01/28 01:34:21;;;;;;;;;;;;;;;18.55;43.30;101394.81;2067261;28;19924;-65
2022/01/28 01:35:22;;;;;;;;;;;;;;;18.54;43.23;101393.03;2064415;28;19921;-64
2022/01/28 01:36:22;;;;;;;;;;;;;;;18.53;43.20;101394.03;2067601;28;19957;-64
2022/01/28 01:37:23;;;;;;;;;;;;;;;18.52;43.12;101393.19;2066313;28;19924;-65
2022/01/28 01:38:26;;;;;;;;;;;;;;;18.52;43.28;101390.44;2066531;28;19924;-64
2022/01/28 01:39:30;;;;;;;;;;;;;;;18.53;43.18;101394.03;2067371;28;19913;-64
2022/01/28 01:40:36;;;;;;;;;;;;;;;18.51;43.19;101396.00;2067234;28;19925;-64
2022/01/28 01:41:50;;;;;;;;;;;;;;;18.51;43.23;101393.28;2064434;28;19975;-64
2022/01/28 01:43:04;;;;;;;;;;;;;;;18.50;43.40;101394.28;2062733;28;20391;-64
2022/01/28 01:52:29;;;;;;;;;;;;;;;18.48;43.35;101397.13;2066369;28;19918;-64
2022/01/28 01:53:30;;;;;;;;;;;;;;;18.49;43.29;101403.44;2065661;28;19921;-64
2022/01/28 01:54:35;;;;;;;;;;;;;;;18.49;43.24;101403.44;2066234;28;20024;-64
2022/01/28 01:55:35;;;;;;;;;;;;;;;18.48;43.24;101396.25;2064618;28;19971;-64
2022/01/28 01:56:37;;;;;;;;;;;;;;;18.48;43.18;101396.25;2064442;28;19925;-64
2022/01/28 01:57:38;;;;;;;;;;;;;;;18.48;43.27;101397.13;2068150;28;20776;-64
2022/01/28 01:58:40;;;;;;;;;;;;;;;18.48;43.21;101394.38;2064753;28;20098;-64
2022/01/28 01:59:41;;;;;;;;;;;;;;;18.48;43.25;101390.78;2067255;28;19924;-64
2022/01/28 02:00:41;;;;;;;;;;;;;;;18.47;43.27;101386.28;2066015;28;20061;-64
2022/01/28 02:01:43;;;;;;;;;;;;;;;18.46;43.30;101392.75;2065989;28;19932;-64
2022/01/28 02:02:44;;;;;;;;;;;;;;;18.44;43.28;101392.84;2067569;28;19991;-64
2022/01/28 02:03:44;;;;;;;;;;;;;;;18.45;43.24;101401.91;2058072;28;19925;-64
2022/01/28 02:04:44;;;;;;;;;;;;;;;18.44;43.44;101403.78;2066983;28;19913;-64
2022/01/28 02:05:45;;;;;;;;;;;;;;;18.42;43.39;101398.44;2066080;28;19972;-64
2022/01/28 02:06:45;;;;;;;;;;;;;;;18.43;43.31;101402.91;2065751;28;20477;-64
2022/01/28 02:07:46;;;;;;;;;;;;;;;18.44;43.52;101409.25;2065089;28;19929;-64
2022/01/28 02:08:46;;;;;;;;;;;;;;;18.45;43.36;101407.38;2061432;28;20015;-64
2022/01/28 02:09:47;;;;;;;;;;;;;;;18.45;43.37;101402.81;2063339;28;19924;-64
2022/01/28 02:10:49;;;;;;;;;;;;;;;18.46;43.46;101409.13;2061750;28;20801;-65
2022/01/28 02:11:49;;;;;;;;;;;;;;;18.46;43.38;101403.69;2067723;28;20453;-64
2022/01/28 02:12:51;;;;;;;;;;;;;;;18.46;43.44;101406.41;2063001;28;19913;-64
2022/01/28 02:13:52;;;;;;;;;;;;;;;18.46;43.54;101410.00;2064245;28;19928;-64
2022/01/28 02:14:52;;;;;;;;;;;;;;;18.47;43.52;101397.22;2065760;28;19909;-65
2022/01/28 02:15:53;;;;;;;;;;;;;;;18.47;43.51;101408.13;2065343;28;19921;-64
2022/01/28 02:16:54;;;;;;;;;;;;;;;18.46;43.42;101412.72;2063626;28;19919;-64
2022/01/28 02:17:54;;;;;;;;;;;;;;;18.45;43.49;101408.28;2066040;28;20412;-64
2022/01/28 02:18:56;;;;;;;;;;;;;;;18.46;43.52;101399.09;2067563;28;19943;-64
2022/01/28 02:19:56;;;;;;;;;;;;;;;18.46;43.49;101395.50;2065133;28;19921;-65
2022/01/28 02:21:04;;;;;;;;;;;;;;;18.45;43.37;101396.44;2066486;28;19960;-65
2022/01/28 02:22:04;;;;;;;;;;;;;;;18.45;43.30;101393.72;2065589;28;20026;-65
2022/01/28 02:23:05;;;;;;;;;;;;;;;18.45;43.44;101399.19;2065119;28;19925;-65
2022/01/28 02:24:06;;;;;;;;;;;;;;;18.43;43.29;101394.72;2067750;28;19959;-65
2022/01/28 02:25:06;;;;;;;;;;;;;;;18.43;43.28;101389.25;2062206;28;20356;-65
2022/01/28 02:26:11;;;;;;;;;;;;;;;18.43;43.34;101389.25;2066625;28;19994;-65
2022/01/28 02:27:15;;;;;;;;;;;;;;;18.42;43.38;101393.00;2067337;28;20011;-65
2022/01/28 02:28:19;;;;;;;;;;;;;;;18.42;43.30;101393.00;2067279;28;19925;-64
2022/01/28 02:29:28;;;;;;;;;;;;;;;18.41;43.47;101391.22;2067553;28;20102;-65
2022/01/28 02:30:29;;;;;;;;;;;;;;;18.40;43.48;101396.81;2066261;28;19948;-65
2022/01/28 02:31:29;;;;;;;;;;;;;;;18.40;43.62;101394.09;2062145;28;19917;-65
2022/01/28 02:32:29;;;;;;;;;;;;;;;18.38;43.62;101391.47;2064969;28;19917;-64
2022/01/28 02:33:30;;;;;;;;;;;;;;;18.37;43.49;101400.66;2065624;28;20445;-64
2022/01/28 02:34:30;;;;;;;;;;;;;;;18.37;43.45;101389.75;2065966;28;19921;-64
2022/01/28 02:35:31;;;;;;;;;;;;;;;18.36;43.51;101398.03;2063522;28;19917;-64
2022/01/28 02:36:31;;;;;;;;;;;;;;;18.35;43.58;101391.69;2066575;28;20759;-65
2022/01/28 02:37:31;;;;;;;;;;;;;;;18.35;43.56;101390.84;2066496;28;19968;-64
2022/01/28 02:38:33;;;;;;;;;;;;;;;18.33;43.60;101388.22;2064889;28;19952;-64
2022/01/28 02:39:33;;;;;;;;;;;;;;;18.33;43.41;101382.75;2067164;28;19924;-64
2022/01/28 02:40:34;;;;;;;;;;;;;;;18.31;43.40;101379.25;2064326;28;19917;-64
2022/01/28 02:41:39;;;;;;;;;;;;;;;18.32;43.69;101381.00;2059725;28;19960;-65
2022/01/28 02:42:56;;;;;;;;;;;;;;;18.31;43.62;101379.25;2065195;28;19917;-64
2022/01/28 02:45:02;;;;;;;;;;;;;;;18.31;43.53;101382.00;2068066;28;20068;-63
2022/01/28 02:46:14;;;;;;;;;;;;;;;18.31;43.56;101395.63;2064831;28;20435;-64
2022/01/28 02:47:18;;;;;;;;;;;;;;;18.31;43.68;101406.56;2062961;28;19916;-64
2022/01/28 02:48:22;;;;;;;;;;;;;;;18.32;43.46;101402.81;2067023;28;19924;-65
2022/01/28 02:49:25;;;;;;;;;;;;;;;18.31;43.51;101414.75;2064994;28;19918;-64
2022/01/28 02:50:28;;;;;;;;;;;;;;;18.31;43.55;101420.19;2064335;28;19960;-64
2022/01/28 02:51:28;;;;;;;;;;;;;;;18.32;43.57;101413.75;2064793;28;20031;-64
2022/01/28 02:52:42;;;;;;;;;;;;;;;18.31;43.53;101414.75;2067087;28;19921;-64
2022/01/28 02:53:48;;;;;;;;;;;;;;;18.32;43.52;101424.66;2061302;28;19925;-64
2022/01/28 02:54:50;;;;;;;;;;;;;;;18.31;43.42;101439.31;2064470;28;20431;-64
2022/01/28 02:55:57;;;;;;;;;;;;;;;18.31;43.35;101433.00;2061595;28;19917;-65
2022/01/28 02:57:02;;;;;;;;;;;;;;;18.31;43.35;101433.84;2063878;28;20058;-64
2022/01/28 02:58:16;;;;;;;;;;;;;;;18.31;43.31;101428.38;2065741;28;20752;-65
2022/01/28 02:59:16;;;;;;;;;;;;;;;18.29;43.48;101430.34;2064861;28;19920;-64
2022/01/28 03:00:17;;;;;;;;;;;;;;;18.29;43.24;101434.94;2062171;28;19991;-65
2022/01/28 03:01:18;;;;;;;;;;;;;;;18.28;43.40;101434.09;2063247;28;19930;-64
2022/01/28 03:02:18;;;;;;;;;;;;;;;18.27;43.50;101435.06;2067223;28;19943;-64
2022/01/28 03:03:19;;;;;;;;;;;;;;;18.27;43.45;101432.31;2065989;28;20002;-64
2022/01/28 03:05:01;;;;;;;;;;;;;;;18.26;43.70;101441.50;2065890;28;19932;-65
2022/01/28 03:05:51;;;;;;;;;;;;;;;18.26;43.64;101440.63;2066835;28;20685;-65
2022/01/28 03:06:52;;;;;;;;;;;;;;;18.24;43.52;101448.94;2063682;28;19948;-64
2022/01/28 03:07:52;;;;;;;;;;;;;;;18.24;43.58;101448.06;2066561;28;19924;-65
2022/01/28 03:09:12;;;;;;;;;;;;;;;18.24;43.59;101448.06;2063592;28;19918;-64
2022/01/28 03:10:27;;;;;;;;;;;;;;;18.22;43.65;101439.97;2067179;28;19929;-64
2022/01/28 03:11:43;;;;;;;;;;;;;;;18.21;43.84;101443.69;2065298;28;19917;-64
2022/01/28 03:14:35;;;;;;;;;;;;;;;18.20;43.58;101439.22;2049020;28;20300;-64
2022/01/28 03:15:38;;;;;;;;;;;;;;;18.20;43.76;101444.66;2047971;28;19925;-64
2022/01/28 03:16:53;;;;;;;;;;;;;;;18.20;43.76;101428.28;2049269;28;19949;-64
2022/01/28 03:18:10;;;;;;;;;;;;;;;18.19;43.67;101434.75;2046357;28;19956;-64
2022/01/28 03:19:22;;;;;;;;;;;;;;;18.19;43.59;101434.75;2050120;28;19922;-64
2022/01/28 03:22:33;;;;;;;;;;;;;;;18.18;43.71;101438.47;2062834;28;20300;-64
2022/01/28 03:23:36;;;;;;;;;;;;;;;18.18;43.47;101441.19;2063256;28;19932;-64
2022/01/28 03:24:38;;;;;;;;;;;;;;;18.18;43.53;101435.75;2065086;28;20016;-64
2022/01/28 03:25:43;;;;;;;;;;;;;;;18.19;43.70;101440.22;2068425;28;19917;-64
2022/01/28 03:26:43;;;;;;;;;;;;;;;18.18;43.63;101433.03;2067189;28;19927;-64
2022/01/28 03:27:52;;;;;;;;;;;;;;;18.17;43.62;101437.56;2058361;28;20524;-64
2022/01/28 03:28:52;;;;;;;;;;;;;;;18.16;43.61;101438.56;2060873;28;19944;-64
2022/01/28 03:29:52;;;;;;;;;;;;;;;18.16;43.58;101443.16;2065374;28;19921;-64
2022/01/28 03:30:53;;;;;;;;;;;;;;;18.15;43.69;101438.69;2068254;28;19990;-63
2022/01/28 03:31:53;;;;;;;;;;;;;;;18.14;43.60;101436.94;2064936;28;19917;-63
2022/01/28 03:32:53;;;;;;;;;;;;;;;18.13;43.55;101435.22;2067855;28;19970;-64
2022/01/28 03:33:54;;;;;;;;;;;;;;;18.13;43.75;101435.22;2063941;28;20692;-64
2022/01/28 03:34:54;;;;;;;;;;;;;;;18.12;43.69;101437.03;2066906;28;20031;-64
2022/01/28 03:35:54;;;;;;;;;;;;;;;18.11;43.78;101431.72;2068358;28;19928;-64
2022/01/28 03:36:56;;;;;;;;;;;;;;;18.11;43.60;101427.13;2066435;28;19925;-64
2022/01/28 03:38:00;;;;;;;;;;;;;;;18.09;43.68;101434.53;2067705;28;20028;-64
2022/01/28 03:39:01;;;;;;;;;;;;;;;18.10;43.96;101432.69;2066914;28;21023;-64
2022/01/28 03:40:02;;;;;;;;;;;;;;;18.10;43.78;101432.69;2067107;28;19971;-64
2022/01/28 03:41:02;;;;;;;;;;;;;;;18.09;43.86;101430.94;2069284;28;20130;-64
2022/01/28 03:42:04;;;;;;;;;;;;;;;18.08;43.78;101431.91;2066487;28;19923;-64
2022/01/28 03:43:05;;;;;;;;;;;;;;;18.08;43.89;101440.09;2067725;28;19921;-64
2022/01/28 03:44:06;;;;;;;;;;;;;;;18.08;43.93;101440.09;2060663;28;19963;-63
2022/01/28 03:45:06;;;;;;;;;;;;;;;18.07;43.88;101439.22;2068214;28;19921;-64
2022/01/28 03:46:07;;;;;;;;;;;;;;;18.08;44.01;101446.47;2065669;28;19929;-64
2022/01/28 03:47:07;;;;;;;;;;;;;;;18.07;43.79;101452.00;2069015;28;20930;-63
2022/01/28 03:48:07;;;;;;;;;;;;;;;18.07;44.02;101452.00;2065801;28;19921;-64
2022/01/28 03:49:09;;;;;;;;;;;;;;;18.07;43.67;101454.75;2065849;28;19924;-64
2022/01/28 03:50:09;;;;;;;;;;;;;;;18.07;44.01;101452.00;2066822;28;19964;-64
2022/01/28 03:51:10;;;;;;;;;;;;;;;18.06;43.72;101450.28;2066142;28;19987;-64
2022/01/28 03:52:10;;;;;;;;;;;;;;;18.07;43.95;101441.97;2066702;28;19925;-64
2022/01/28 03:53:10;;;;;;;;;;;;;;;18.07;43.90;101441.09;2066833;28;20076;-64
2022/01/28 03:54:11;;;;;;;;;;;;;;;18.05;43.66;101440.31;2068437;28;19921;-64
2022/01/28 03:55:11;;;;;;;;;;;;;;;18.06;43.80;101439.38;2064897;28;20002;-64
2022/01/28 03:56:11;;;;;;;;;;;;;;;18.06;43.65;101442.09;2067873;28;19925;-63
2022/01/28 03:57:12;;;;;;;;;;;;;;;18.05;43.72;101440.31;2065400;28;20021;-64
2022/01/28 03:58:13;;;;;;;;;;;;;;;18.04;43.87;101433.13;2067144;28;19999;-64
2022/01/28 03:59:13;;;;;;;;;;;;;;;18.04;43.88;101441.31;2066970;28;19967;-63
2022/01/28 04:00:14;;;;;;;;;;;;;;;18.03;43.93;101439.56;2067173;28;19913;-64
2022/01/28 04:01:32;;;;;;;;;;;;;;;18.02;43.80;101444.16;2067024;28;20335;-63
2022/01/28 04:02:36;;;;;;;;;;;;;;;18.02;43.65;101446.00;2063296;28;20380;-64
2022/01/28 04:03:42;;;;;;;;;;;;;;;18.00;43.67;101436.06;2064748;28;20462;-64
2022/01/28 04:12:15;;;;;;;;;;;;;;;17.94;44.05;101444.72;2064679;28;19996;-64
2022/01/28 04:13:20;;;;;;;;;;;;;;;17.94;43.86;101441.97;2063753;28;19925;-64
2022/01/28 04:17:21;;;;;;;;;;;;;;;17.91;44.08;101436.75;2065928;28;20374;-64
2022/01/28 04:18:22;;;;;;;;;;;;;;;17.92;43.95;101430.28;2065022;28;19956;-63
2022/01/28 04:19:22;;;;;;;;;;;;;;;17.93;43.83;101444.81;2064579;28;19913;-64
2022/01/28 04:20:22;;;;;;;;;;;;;;;17.93;43.74;101433.91;2066764;28;20396;-64
2022/01/28 04:21:23;;;;;;;;;;;;;;;17.92;43.91;101434.88;2068284;28;20292;-64
2022/01/28 04:22:24;;;;;;;;;;;;;;;17.92;43.86;101423.97;2066729;28;20886;-64
2022/01/28 04:23:24;;;;;;;;;;;;;;;17.92;44.02;101427.56;2063634;28;20021;-64
2022/01/28 04:24:24;;;;;;;;;;;;;;;17.93;43.94;101429.34;2066482;28;19975;-64
2022/01/28 04:25:25;;;;;;;;;;;;;;;17.94;43.82;101432.94;2064587;28;19926;-64
2022/01/28 04:26:25;;;;;;;;;;;;;;;17.96;43.92;101430.97;2064720;28;19929;-64
2022/01/28 04:27:25;;;;;;;;;;;;;;;17.95;43.84;101427.34;2065187;28;19928;-64
2022/01/28 04:28:25;;;;;;;;;;;;;;;17.97;43.93;101421.78;2066988;28;19921;-64
2022/01/28 04:29:26;;;;;;;;;;;;;;;17.97;43.78;101425.38;2065324;28;20008;-65
2022/01/28 04:30:26;;;;;;;;;;;;;;;17.98;43.73;101428.97;2067678;28;20009;-64
2022/01/28 04:31:26;;;;;;;;;;;;;;;17.98;43.86;101435.31;2066425;28;19972;-65
2022/01/28 04:32:29;;;;;;;;;;;;;;;17.98;43.86;101432.59;2063191;28;19939;-64
2022/01/28 04:33:30;;;;;;;;;;;;;;;17.96;43.88;101423.66;2066411;28;19925;-64
2022/01/28 04:34:32;;;;;;;;;;;;;;;17.97;43.79;101425.38;2066662;28;20262;-64
2022/01/28 04:35:32;;;;;;;;;;;;;;;17.96;43.69;101433.69;2066398;28;20027;-64
2022/01/28 04:36:37;;;;;;;;;;;;;;;17.96;43.85;101437.28;2067127;28;20885;-65
2022/01/28 04:38:26;;;;;;;;;;;;;;;17.95;43.79;101432.78;2065941;28;19949;-64
2022/01/28 04:39:16;;;;;;;;;;;;;;;17.95;43.92;101427.34;2061405;28;20649;-64
2022/01/28 04:40:26;;;;;;;;;;;;;;;17.94;43.86;101431.06;2063154;28;20157;-65
2022/01/28 04:41:42;;;;;;;;;;;;;;;17.94;44.05;101431.06;2064535;28;21116;-65
2022/01/28 04:43:49;;;;;;;;;;;;;;;17.93;44.06;101436.63;2063231;28;19921;-64
2022/01/28 04:45:14;;;;;;;;;;;;;;;17.91;43.84;101431.28;2063509;28;20004;-64
2022/01/28 04:46:36;;;;;;;;;;;;;;;17.91;44.07;101442.22;2065967;28;21105;-65
2022/01/28 04:47:55;;;;;;;;;;;;;;;17.90;43.92;101434.13;2066263;28;19921;-64
2022/01/28 04:49:12;;;;;;;;;;;;;;;17.89;44.22;101433.25;2065862;28;20347;-64
2022/01/28 05:07:54;;;;;;;;;;;;;;;17.79;44.21;101426.69;2066867;28;20435;-64
2022/01/28 05:10:37;;;;;;;;;;;;;;;17.78;44.21;101430.38;2064339;28;20406;-64
2022/01/28 05:15:34;;;;;;;;;;;;;;;17.76;44.29;101451.41;2066327;28;20267;-65
2022/01/28 05:26:01;;;;;;;;;;;;;;;17.74;43.99;101439.78;2061953;28;19917;-65
2022/01/28 05:26:56;;;;;;;;;;;;;;;17.73;44.14;101446.19;2067336;28;20004;-65
2022/01/28 05:27:57;;;;;;;;;;;;;;;17.73;44.16;101443.47;2063001;28;20485;-65
2022/01/28 05:28:57;;;;;;;;;;;;;;;17.73;44.16;101440.75;2067545;28;19966;-65
2022/01/28 05:29:57;;;;;;;;;;;;;;;17.72;44.23;101447.19;2064537;28;19921;-66
2022/01/28 05:30:58;;;;;;;;;;;;;;;17.70;44.26;101444.56;2065854;28;19922;-65
2022/01/28 05:31:58;;;;;;;;;;;;;;;17.71;44.28;101456.34;2063601;28;19917;-66
2022/01/28 05:32:58;;;;;;;;;;;;;;;17.70;44.12;101460.06;2061326;28;20043;-65
2022/01/28 05:33:59;;;;;;;;;;;;;;;17.70;44.47;101462.78;2067459;28;19921;-65
2022/01/28 05:34:59;;;;;;;;;;;;;;;17.69;44.22;101477.41;2062256;28;20667;-65
2022/01/28 05:35:59;;;;;;;;;;;;;;;17.67;44.27;101480.22;2066692;28;19921;-65
2022/01/28 05:36:59;;;;;;;;;;;;;;;17.68;44.21;101483.81;2064384;28;19921;-68
2022/01/28 05:38:00;;;;;;;;;;;;;;;17.67;44.37;101484.81;2064719;28;19944;-63
2022/01/28 05:39:00;;;;;;;;;;;;;;;17.66;44.35;101480.31;2066766;28;19925;-65
2022/01/28 05:40:00;;;;;;;;;;;;;;;17.66;44.16;101480.31;2063668;28;19963;-65
2022/01/28 05:41:01;;;;;;;;;;;;;;;17.65;44.24;101478.59;2066493;28;19921;-66
2022/01/28 05:42:01;;;;;;;;;;;;;;;17.65;44.34;101490.38;2064475;28;19952;-65
2022/01/28 05:43:02;;;;;;;;;;;;;;;17.64;43.92;101482.28;2067619;28;20277;-65
2022/01/28 05:44:02;;;;;;;;;;;;;;;17.63;44.45;101486.88;2065650;28;19923;-65
2022/01/28 05:45:03;;;;;;;;;;;;;;;17.62;44.14;101485.13;2063223;28;19921;-65
2022/01/28 05:46:03;;;;;;;;;;;;;;;17.63;44.29;101486.00;2066535;28;19925;-65
2022/01/28 05:47:03;;;;;;;;;;;;;;;17.62;44.38;101487.00;2064431;28;19947;-64
2022/01/28 05:48:04;;;;;;;;;;;;;;;17.63;44.11;101492.31;2066825;28;19928;-65
2022/01/28 05:49:05;;;;;;;;;;;;;;;17.63;44.30;101492.31;2065725;28;19928;-65
2022/01/28 05:50:06;;;;;;;;;;;;;;;17.63;44.32;101483.28;2065774;28;19925;-65
2022/01/28 05:51:06;;;;;;;;;;;;;;;17.63;44.16;101488.72;2065906;28;19964;-64
2022/01/28 05:52:06;;;;;;;;;;;;;;;17.63;44.24;101494.19;2064384;28;20407;-65
2022/01/28 05:53:07;;;;;;;;;;;;;;;17.63;44.00;101497.78;2065616;28;19921;-64
2022/01/28 05:54:07;;;;;;;;;;;;;;;17.62;44.35;101490.59;2066357;28;19928;-64
2022/01/28 05:55:08;;;;;;;;;;;;;;;17.63;44.00;101491.47;2065265;28;20020;-64
2022/01/28 05:56:08;;;;;;;;;;;;;;;17.62;44.12;101490.59;2062583;28;20261;-64
2022/01/28 05:57:08;;;;;;;;;;;;;;;17.62;44.01;101478.81;2063896;28;19931;-64
2022/01/28 05:58:09;;;;;;;;;;;;;;;17.62;44.24;101478.81;2076661;28;19925;-65
2022/01/28 05:59:09;;;;;;;;;;;;;;;17.62;44.21;101484.28;2061647;28;20529;-64
2022/01/28 06:00:10;;;;;;;;;;;;;;;17.60;44.12;101483.50;2065302;28;19913;-65
2022/01/28 06:01:10;;;;;;;;;;;;;;;17.60;44.02;101486.22;2066179;28;19978;-64
2022/01/28 06:02:10;;;;;;;;;;;;;;;17.60;44.12;101487.09;2065630;28;20449;-64
2022/01/28 06:03:11;;;;;;;;;;;;;;;17.59;44.03;101490.81;2063856;28;20364;-64
2022/01/28 06:04:11;;;;;;;;;;;;;;;17.57;44.17;101488.19;2063683;28;19905;-64
2022/01/28 06:05:12;;;;;;;;;;;;;;;17.57;44.09;101498.22;2066121;28;20790;-64
2022/01/28 06:06:18;;;;;;;;;;;;;;;17.56;44.32;101502.81;2062441;28;19999;-64
2022/01/28 06:07:20;;;;;;;;;;;;;;;17.55;44.25;101503.75;2066670;28;19917;-64
2022/01/28 06:08:21;;;;;;;;;;;;;;;17.56;44.24;101507.34;2059732;28;19925;-65
2022/01/28 06:09:21;;;;;;;;;;;;;;;17.55;44.30;101511.06;2065088;28;19925;-65
2022/01/28 06:10:22;;;;;;;;;;;;;;;17.54;44.35;101512.94;2067391;28;21820;-64
2022/01/28 06:11:23;;;;;;;;;;;;;;;17.54;44.39;101521.13;2062891;28;20000;-64
2022/01/28 06:12:23;;;;;;;;;;;;;;;17.54;44.24;101514.75;2061305;28;19918;-64
2022/01/28 06:13:23;;;;;;;;;;;;;;;17.53;44.32;101519.34;2065054;28;19999;-64
2022/01/28 06:14:24;;;;;;;;;;;;;;;17.53;44.41;101519.34;2067408;28;19921;-63
2022/01/28 06:15:24;;;;;;;;;;;;;;;17.54;44.35;101517.50;2065223;28;20375;-63
2022/01/28 06:16:25;;;;;;;;;;;;;;;17.53;44.27;101519.34;2066973;28;19922;-64
2022/01/28 06:17:25;;;;;;;;;;;;;;;17.54;44.31;101518.38;2066632;28;20660;-64
2022/01/28 06:18:25;;;;;;;;;;;;;;;17.55;44.56;101525.56;2064846;28;19921;-64
2022/01/28 06:19:26;;;;;;;;;;;;;;;17.55;44.28;101528.31;2066769;28;19940;-64
2022/01/28 06:20:26;;;;;;;;;;;;;;;17.57;44.53;101523.63;2064866;28;19906;-64
2022/01/28 06:21:26;;;;;;;;;;;;;;;17.58;44.44;101522.63;2065892;28;19971;-64
2022/01/28 06:22:26;;;;;;;;;;;;;;;17.59;44.15;101523.53;2063558;28;20437;-64
2022/01/28 06:23:27;;;;;;;;;;;;;;;17.61;44.08;101528.84;2065453;28;20055;-64
2022/01/28 06:24:28;;;;;;;;;;;;;;;17.62;44.26;101527.91;2065745;28;19939;-65
2022/01/28 06:25:29;;;;;;;;;;;;;;;17.63;43.97;101529.63;2064045;28;19921;-64
2022/01/28 06:26:29;;;;;;;;;;;;;;;17.64;43.99;101525.91;2066489;28;20403;-65
2022/01/28 06:27:29;;;;;;;;;;;;;;;17.64;44.03;101528.63;2062545;28;19917;-64
2022/01/28 06:28:30;;;;;;;;;;;;;;;17.64;44.03;101531.38;2063832;28;19921;-64
2022/01/28 06:29:30;;;;;;;;;;;;;;;17.67;43.84;101536.63;2064581;28;19943;-64
2022/01/28 06:30:30;;;;;;;;;;;;;;;17.67;43.96;101531.19;2064886;28;20354;-65
2022/01/28 06:31:31;;;;;;;;;;;;;;;17.66;44.08;101538.47;2064202;28;19931;-64
2022/01/28 06:32:32;;;;;;;;;;;;;;;17.67;43.98;101536.63;2064005;28;19921;-64
2022/01/28 06:33:32;;;;;;;;;;;;;;;17.68;43.83;101543.81;2063976;28;20011;-64
2022/01/28 06:34:33;;;;;;;;;;;;;;;17.70;43.95;101541.88;2062619;28;19921;-64
2022/01/28 06:35:33;;;;;;;;;;;;;;;17.71;43.97;101546.31;2067945;28;20605;-64
2022/01/28 06:36:35;;;;;;;;;;;;;;;17.71;43.87;101549.06;2063078;28;20023;-66
2022/01/28 06:37:39;;;;;;;;;;;;;;;17.73;43.54;101558.00;2067025;28;20379;-64
2022/01/28 06:38:40;;;;;;;;;;;;;;;17.73;43.66;101563.47;2067316;28;19923;-64
2022/01/28 06:39:40;;;;;;;;;;;;;;;17.74;43.53;101559.78;2064322;28;19920;-64
2022/01/28 06:40:41;;;;;;;;;;;;;;;17.75;43.53;101561.50;2065978;28;19921;-64
2022/01/28 06:41:41;;;;;;;;;;;;;;;17.76;43.33;101563.25;2065775;28;19929;-65
2022/01/28 06:42:42;;;;;;;;;;;;;;;17.77;43.34;101570.47;2062947;28;19921;-64
2022/01/28 06:43:42;;;;;;;;;;;;;;;17.76;43.41;101565.97;2064305;28;20532;-64
2022/01/28 06:44:43;;;;;;;;;;;;;;;17.77;43.33;101570.47;2062591;28;20155;-64
2022/01/28 06:45:43;;;;;;;;;;;;;;;17.77;43.08;101571.34;2066400;28;19929;-64